createdAt,value
2023-01-26T00:01:41.238Z,44.55
2023-01-26T00:04:08.887Z,40.25
2023-01-26T00:06:36.835Z,32.55
2023-01-26T00:09:05.424Z,34.15
2023-01-26T00:11:32.993Z,36.97
2023-01-26T00:14:01.194Z,29.52
2023-01-26T00:16:28.872Z,33.75
2023-01-26T00:18:56.466Z,39.28
2023-01-26T00:21:24.971Z,41.20
2023-01-26T00:23:53.413Z,47.20
2023-01-26T00:26:23.543Z,41.80
2023-01-26T00:28:52.318Z,40.20
2023-01-26T00:31:22.417Z,37.67
2023-01-26T00:33:51.173Z,37.83
2023-01-26T00:36:19.533Z,42.22
2023-01-26T00:38:47.739Z,46.35
2023-01-26T00:41:34.020Z,41.85
2023-01-26T00:44:01.758Z,29.55
2023-01-26T00:46:29.502Z,33.58
2023-01-26T00:48:57.938Z,49.70
2023-01-26T00:51:25.431Z,28.15
2023-01-26T00:53:52.983Z,38.78
2023-01-26T00:56:20.898Z,39.80
2023-01-26T00:58:49.568Z,46.20
2023-01-26T01:01:17.766Z,32.97
2023-01-26T01:03:45.917Z,43.22
2023-01-26T01:06:13.432Z,38.72
2023-01-26T01:08:41.376Z,38.70
2023-01-26T01:11:11.248Z,45.20
2023-01-26T01:13:39.637Z,33.90
2023-01-26T01:16:08.710Z,51.65
2023-01-26T01:18:36.949Z,53.50
2023-01-26T01:21:13.756Z,44.53
2023-01-26T01:23:42.215Z,48.45
2023-01-26T01:26:10.568Z,55.28
2023-01-26T01:28:38.958Z,58.13
2023-01-26T01:31:12.443Z,56.80
2023-01-26T01:33:40.977Z,53.88
2023-01-26T01:36:12.600Z,63.10
2023-01-26T01:38:40.917Z,45.45
2023-01-26T01:41:09.592Z,55.55
2023-01-26T01:43:38.172Z,60.95
2023-01-26T01:46:28.569Z,51.95
2023-01-26T01:49:19.192Z,43.60
2023-01-26T01:52:04.334Z,42.73
2023-01-26T01:54:52.098Z,57.88
2023-01-26T01:57:44.728Z,44.70
2023-01-26T02:00:19.194Z,39.25
2023-01-26T02:03:14.715Z,41.63
2023-01-26T02:06:02.796Z,41.55
2023-01-26T02:08:44.610Z,41.70
2023-01-26T02:11:26.061Z,32.58
2023-01-26T02:13:56.650Z,40.85
2023-01-26T02:16:24.750Z,43.38
2023-01-26T02:18:53.773Z,41.55
2023-01-26T02:21:23.987Z,37.30
2023-01-26T02:24:12.597Z,36.75
2023-01-26T02:26:40.803Z,34.03
2023-01-26T02:29:10.725Z,42.60
2023-01-26T02:31:43.101Z,36.20
2023-01-26T02:34:11.588Z,44.25
2023-01-26T02:36:39.235Z,32.08
2023-01-26T02:39:34.953Z,33.28
2023-01-26T02:42:21.106Z,35.10
2023-01-26T02:44:48.857Z,32.30
2023-01-26T02:47:19.020Z,41.28
2023-01-26T02:49:48.511Z,50.72
2023-01-26T02:52:26.427Z,59.70
2023-01-26T02:55:19.960Z,63.95
2023-01-26T02:57:47.941Z,45.50
2023-01-26T03:00:37.460Z,51.08
2023-01-26T03:03:14.627Z,56.42
2023-01-26T03:05:42.859Z,67.95
2023-01-26T03:08:10.919Z,53.92
2023-01-26T03:10:39.287Z,59.05
2023-01-26T03:13:08.335Z,59.03
2023-01-26T03:15:48.040Z,46.47
2023-01-26T03:18:37.481Z,58.83
2023-01-26T03:21:28.344Z,48.33
2023-01-26T03:24:14.551Z,45.15
2023-01-26T03:27:03.142Z,52.63
2023-01-26T03:29:34.192Z,54.95
2023-01-26T03:32:02.971Z,47.45
2023-01-26T03:34:31.395Z,55.50
2023-01-26T03:36:59.363Z,47.63
2023-01-26T03:39:51.302Z,48.75
2023-01-26T03:42:37.559Z,49.30
2023-01-26T03:45:25.020Z,48.08
2023-01-26T03:48:11.241Z,47.15
2023-01-26T03:50:57.574Z,51.42
2023-01-26T03:53:43.758Z,48.97
2023-01-26T03:56:20.758Z,48.33
2023-01-26T03:58:58.487Z,62.28
2023-01-26T04:01:29.488Z,61.97
2023-01-26T04:04:17.769Z,79.55
2023-01-26T04:07:07.535Z,100.53
2023-01-26T04:09:39.616Z,104.90
2023-01-26T04:12:10.194Z,132.93
2023-01-26T04:15:03.100Z,115.63
2023-01-26T04:17:49.372Z,159.25
2023-01-26T04:20:35.569Z,160.02
2023-01-26T04:23:03.258Z,101.10
2023-01-26T04:25:30.883Z,151.18
2023-01-26T04:27:59.080Z,149.20
2023-01-26T04:30:26.816Z,179.98
2023-01-26T04:32:54.965Z,110.68
2023-01-26T04:35:22.934Z,128.07
2023-01-26T04:37:50.568Z,104.47
2023-01-26T04:40:18.801Z,84.72
2023-01-26T04:42:46.932Z,76.72
2023-01-26T04:45:14.910Z,85.53
2023-01-26T04:47:44.725Z,48.33
2023-01-26T04:50:13.642Z,63.60
2023-01-26T04:52:41.470Z,51.10
2023-01-26T04:55:09.570Z,56.78
2023-01-26T04:57:38.950Z,53.80
2023-01-26T05:00:08.767Z,37.67
2023-01-26T05:02:36.913Z,50.50
2023-01-26T05:05:04.783Z,44.35
2023-01-26T05:07:32.758Z,45.17
2023-01-26T05:10:00.700Z,44.13
2023-01-26T05:12:43.659Z,44.17
2023-01-26T05:15:33.184Z,43.53
2023-01-26T05:18:36.261Z,39.55
2023-01-26T05:21:15.196Z,33.60
2023-01-26T05:23:47.499Z,31.77
2023-01-26T05:26:46.070Z,38.03
2023-01-26T05:29:18.046Z,34.10
2023-01-26T05:31:46.622Z,32.05
2023-01-26T05:34:14.582Z,36.58
2023-01-26T05:36:42.066Z,38.40
2023-01-26T05:39:11.162Z,36.85
2023-01-26T05:41:38.803Z,38.15
2023-01-26T05:44:25.885Z,35.00
2023-01-26T05:47:02.829Z,34.05
2023-01-26T05:49:31.444Z,30.48
2023-01-26T05:51:59.229Z,40.85
2023-01-26T05:54:27.037Z,32.35
2023-01-26T05:56:57.651Z,31.90
2023-01-26T05:59:27.278Z,30.60
2023-01-26T06:01:56.836Z,31.67
2023-01-26T06:04:25.200Z,28.13
2023-01-26T06:06:57.022Z,32.50
2023-01-26T06:09:29.176Z,25.98
2023-01-26T06:12:15.755Z,29.00
2023-01-26T06:15:04.597Z,31.92
2023-01-26T06:17:39.672Z,28.88
2023-01-26T06:20:11.345Z,26.85
2023-01-26T06:22:39.755Z,31.70
2023-01-26T06:25:07.798Z,28.33
2023-01-26T06:27:36.340Z,25.35
2023-01-26T06:30:11.648Z,32.55
2023-01-26T06:32:40.726Z,31.23
2023-01-26T06:35:08.925Z,25.20
2023-01-26T06:37:36.766Z,24.83
2023-01-26T06:40:04.996Z,27.50
2023-01-26T06:42:33.024Z,28.52
2023-01-26T06:45:00.898Z,24.55
2023-01-26T06:47:28.867Z,33.03
2023-01-26T06:49:56.824Z,31.30
2023-01-26T06:52:45.326Z,27.23
2023-01-26T06:55:39.171Z,20.02
2023-01-26T06:58:28.648Z,26.80
2023-01-26T07:01:21.851Z,20.70
2023-01-26T07:03:50.942Z,27.02
2023-01-26T07:06:18.941Z,19.45
2023-01-26T07:08:46.980Z,25.23
2023-01-26T07:11:16.162Z,26.70
2023-01-26T07:13:43.876Z,22.30
2023-01-26T07:16:13.852Z,21.52
2023-01-26T07:18:41.555Z,22.38
2023-01-26T07:21:18.486Z,27.30
2023-01-26T07:23:46.766Z,22.67
2023-01-26T07:26:15.071Z,23.42
2023-01-26T07:28:42.892Z,22.58
2023-01-26T07:31:11.945Z,21.52
2023-01-26T07:33:39.769Z,21.65
2023-01-26T07:36:07.749Z,22.88
2023-01-26T07:38:35.365Z,23.00
2023-01-26T07:41:12.003Z,26.08
2023-01-26T07:43:41.995Z,30.60
2023-01-26T07:46:12.831Z,25.88
2023-01-26T07:48:41.828Z,20.00
2023-01-26T07:51:11.202Z,21.27
2023-01-26T07:53:43.487Z,17.42
2023-01-26T07:56:12.324Z,30.20
2023-01-26T07:58:40.478Z,24.67
2023-01-26T08:01:15.619Z,28.98
2023-01-26T08:03:45.576Z,17.40
2023-01-26T08:06:15.350Z,20.25
2023-01-26T08:08:44.359Z,19.13
2023-01-26T08:11:12.494Z,24.60
2023-01-26T08:13:40.133Z,23.55
2023-01-26T08:16:12.015Z,21.73
2023-01-26T08:18:41.575Z,22.77
2023-01-26T08:21:10.304Z,21.23
2023-01-26T08:23:37.954Z,22.67
2023-01-26T08:26:07.888Z,22.73
2023-01-26T08:28:35.969Z,17.98
2023-01-26T08:31:06.464Z,18.38
2023-01-26T08:33:34.981Z,16.60
2023-01-26T08:36:04.132Z,19.27
2023-01-26T08:38:32.878Z,17.40
2023-01-26T08:41:02.115Z,18.45
2023-01-26T08:43:30.746Z,18.88
2023-01-26T08:45:58.912Z,16.83
2023-01-26T08:48:26.901Z,14.63
2023-01-26T08:50:56.009Z,14.95
2023-01-26T08:53:24.769Z,17.10
2023-01-26T08:55:52.860Z,12.32
2023-01-26T08:58:20.629Z,15.35
2023-01-26T09:00:48.269Z,16.30
2023-01-26T09:03:15.892Z,13.07
2023-01-26T09:05:43.623Z,16.58
2023-01-26T09:08:12.264Z,12.93
2023-01-26T09:10:39.806Z,12.93
2023-01-26T09:13:07.363Z,18.95
2023-01-26T09:15:38.278Z,15.30
2023-01-26T09:18:06.376Z,17.08
2023-01-26T09:20:33.958Z,18.35
2023-01-26T09:23:01.666Z,19.13
2023-01-26T09:25:29.486Z,14.15
2023-01-26T09:27:57.351Z,12.80
2023-01-26T09:30:25.102Z,11.52
2023-01-26T09:32:52.924Z,13.10
2023-01-26T09:35:20.419Z,14.10
2023-01-26T09:37:48.057Z,16.40
2023-01-26T09:40:56.809Z,12.35
2023-01-26T09:43:47.972Z,15.13
2023-01-26T09:46:26.018Z,19.35
2023-01-26T09:49:11.659Z,14.07
2023-01-26T09:51:48.937Z,10.23
2023-01-26T09:54:36.388Z,10.00
2023-01-26T09:57:31.520Z,12.05
2023-01-26T10:00:15.799Z,10.82
2023-01-26T10:03:11.230Z,9.43
2023-01-26T10:05:53.588Z,10.15
2023-01-26T10:08:42.706Z,7.03
2023-01-26T10:11:15.950Z,8.30
2023-01-26T10:13:50.591Z,7.80
2023-01-26T10:16:18.572Z,8.68
2023-01-26T10:19:22.031Z,7.65
2023-01-26T10:21:51.277Z,11.82
2023-01-26T10:24:23.876Z,10.77
2023-01-26T10:26:56.560Z,8.43
2023-01-26T10:29:24.125Z,9.35
2023-01-26T10:31:51.904Z,8.48
2023-01-26T10:34:27.362Z,8.90
2023-01-26T10:37:15.076Z,12.05
2023-01-26T10:39:58.889Z,11.27
2023-01-26T10:42:30.475Z,10.05
2023-01-26T10:45:02.074Z,12.88
2023-01-26T10:47:30.222Z,11.68
2023-01-26T10:50:22.644Z,9.98
2023-01-26T10:53:04.662Z,11.35
2023-01-26T10:55:33.794Z,11.20
2023-01-26T10:58:01.833Z,12.25
2023-01-26T11:00:32.859Z,12.50
2023-01-26T11:03:18.499Z,9.48
2023-01-26T11:05:48.231Z,12.77
2023-01-26T11:08:51.219Z,10.30
2023-01-26T11:11:27.668Z,11.80
2023-01-26T11:14:15.087Z,11.05
2023-01-26T11:17:00.730Z,9.20
2023-01-26T11:19:31.502Z,11.45
2023-01-26T11:22:03.346Z,11.33
2023-01-26T11:24:54.801Z,9.02
2023-01-26T11:27:51.406Z,9.82
2023-01-26T11:30:39.261Z,12.23
2023-01-26T11:33:37.755Z,9.05
2023-01-26T11:36:26.853Z,11.38
2023-01-26T11:39:34.228Z,13.10
2023-01-26T11:42:12.477Z,8.77
2023-01-26T11:44:55.208Z,10.70
2023-01-26T11:47:54.954Z,9.05
2023-01-26T11:50:50.846Z,7.38
2023-01-26T11:53:36.417Z,11.63
2023-01-26T11:56:31.042Z,8.32
2023-01-26T11:59:25.206Z,10.38
2023-01-26T12:02:17.602Z,9.52
2023-01-26T12:04:46.908Z,9.82
2023-01-26T12:07:22.234Z,9.48
2023-01-26T12:09:52.864Z,11.68
2023-01-26T12:12:20.426Z,9.30
2023-01-26T12:15:05.836Z,12.27
2023-01-26T12:17:59.800Z,11.25
2023-01-26T12:20:40.116Z,12.60
2023-01-26T12:23:26.629Z,10.25
2023-01-26T12:26:03.066Z,11.02
2023-01-26T12:28:52.534Z,9.20
2023-01-26T12:31:31.177Z,9.38
2023-01-26T12:33:59.890Z,8.45
2023-01-26T12:36:58.666Z,11.10
2023-01-26T12:39:39.766Z,14.07
2023-01-26T12:42:27.065Z,8.50
2023-01-26T12:45:02.574Z,10.38
2023-01-26T12:47:39.397Z,9.40
2023-01-26T12:50:16.167Z,7.45
2023-01-26T12:52:49.570Z,7.75
2023-01-26T12:55:20.264Z,10.63
2023-01-26T12:57:56.004Z,10.02
2023-01-26T13:00:31.020Z,10.23
2023-01-26T13:03:18.747Z,10.02
2023-01-26T13:06:02.144Z,11.13
2023-01-26T13:08:33.068Z,10.55
2023-01-26T13:11:06.683Z,10.70
2023-01-26T13:13:52.950Z,9.60
2023-01-26T13:16:22.069Z,10.93
2023-01-26T13:18:51.321Z,10.57
2023-01-26T13:21:38.090Z,11.93
2023-01-26T13:24:17.859Z,13.10
2023-01-26T13:26:46.632Z,10.05
2023-01-26T13:29:29.295Z,9.93
2023-01-26T13:32:00.009Z,17.45
2023-01-26T13:34:27.982Z,13.60
2023-01-26T13:37:17.871Z,11.10
2023-01-26T13:39:52.576Z,11.48
2023-01-26T13:42:27.629Z,15.60
2023-01-26T13:45:17.049Z,8.70
2023-01-26T13:47:47.878Z,10.45
2023-01-26T13:50:25.551Z,13.63
2023-01-26T13:52:53.615Z,12.77
2023-01-26T13:55:27.280Z,8.55
2023-01-26T13:58:14.809Z,17.33
2023-01-26T14:00:42.748Z,16.73
2023-01-26T14:03:23.084Z,14.27
2023-01-26T14:06:11.022Z,13.43
2023-01-26T14:08:39.552Z,10.07
2023-01-26T14:11:21.270Z,15.93
2023-01-26T14:16:36.728Z,10.18
2023-01-26T14:19:20.452Z,10.82
2023-01-26T14:21:56.624Z,11.13
2023-01-26T14:24:33.438Z,10.80
2023-01-26T14:27:02.926Z,8.90
2023-01-26T14:29:31.042Z,8.68
2023-01-26T14:32:00.022Z,9.88
2023-01-26T14:34:30.790Z,11.77
2023-01-26T14:37:17.362Z,7.70
2023-01-26T14:39:48.007Z,9.95
2023-01-26T14:42:18.820Z,8.30
2023-01-26T14:44:47.343Z,11.83
2023-01-26T14:47:23.684Z,11.77
2023-01-26T14:49:56.622Z,11.65
2023-01-26T14:52:27.768Z,14.02
2023-01-26T14:54:58.333Z,9.88
2023-01-26T14:57:28.214Z,9.80
2023-01-26T14:59:59.343Z,14.05
2023-01-26T15:02:37.073Z,11.38
2023-01-26T15:05:14.029Z,12.63
2023-01-26T15:07:41.628Z,10.57
2023-01-26T15:10:38.537Z,9.88
2023-01-26T15:13:06.577Z,10.30
2023-01-26T15:15:43.115Z,9.80
2023-01-26T15:18:13.755Z,13.05
2023-01-26T15:20:53.253Z,8.73
2023-01-26T15:23:21.449Z,12.43
2023-01-26T15:25:49.512Z,18.10
2023-01-26T15:28:25.803Z,11.98
2023-01-26T15:30:56.276Z,9.88
2023-01-26T15:33:45.728Z,12.57
2023-01-26T15:36:43.538Z,14.38
2023-01-26T15:39:16.194Z,11.68
2023-01-26T15:41:58.302Z,10.20
2023-01-26T15:44:26.302Z,12.07
2023-01-26T15:46:56.479Z,11.18
2023-01-26T15:49:23.971Z,10.00
2023-01-26T15:51:53.796Z,14.60
2023-01-26T15:54:21.895Z,14.18
2023-01-26T15:56:49.465Z,21.05
2023-01-26T15:59:17.051Z,10.82
2023-01-26T16:01:45.047Z,10.55
2023-01-26T16:04:15.171Z,10.50
2023-01-26T16:06:42.777Z,11.93
2023-01-26T16:09:10.775Z,10.85
2023-01-26T16:11:49.684Z,14.55
2023-01-26T16:14:17.554Z,11.80
2023-01-26T16:16:45.468Z,12.88
2023-01-26T16:19:26.309Z,13.80
2023-01-26T16:22:02.602Z,8.48
2023-01-26T16:24:30.583Z,14.32
2023-01-26T16:26:58.154Z,7.55
2023-01-26T16:29:25.886Z,9.13
2023-01-26T16:31:53.659Z,10.82
2023-01-26T16:34:21.191Z,11.63
2023-01-26T16:36:48.818Z,11.95
2023-01-26T16:39:17.187Z,8.38
2023-01-26T16:41:44.789Z,25.40
2023-01-26T16:44:14.675Z,10.68
2023-01-26T16:46:42.866Z,13.43
2023-01-26T16:49:16.206Z,12.77
2023-01-26T16:51:44.363Z,12.38
2023-01-26T16:54:12.596Z,12.68
2023-01-26T16:56:40.692Z,8.00
2023-01-26T16:59:08.496Z,8.73
2023-01-26T17:01:37.309Z,10.65
2023-01-26T17:04:05.421Z,8.40
2023-01-26T17:06:33.092Z,10.35
2023-01-26T17:09:01.045Z,11.80
2023-01-26T17:11:29.451Z,14.70
2023-01-26T17:13:59.192Z,9.02
2023-01-26T17:16:34.941Z,12.10
2023-01-26T17:19:02.981Z,14.45
2023-01-26T17:21:30.921Z,9.88
2023-01-26T17:23:58.990Z,9.73
2023-01-26T17:26:26.838Z,14.43
2023-01-26T17:28:55.847Z,10.05
2023-01-26T17:31:24.703Z,14.07
2023-01-26T17:33:52.858Z,28.25
2023-01-26T17:36:20.679Z,20.10
2023-01-26T17:38:49.167Z,23.45
2023-01-26T17:41:17.654Z,18.45
2023-01-26T17:43:45.962Z,12.65
2023-01-26T17:46:16.360Z,19.00
2023-01-26T17:48:45.825Z,19.88
2023-01-26T17:51:18.892Z,16.58
2023-01-26T17:53:49.956Z,14.00
2023-01-26T17:56:21.512Z,16.50
2023-01-26T17:58:52.048Z,12.90
2023-01-26T18:01:20.772Z,10.20
2023-01-26T18:03:49.336Z,11.35
2023-01-26T18:06:17.274Z,12.95
2023-01-26T18:08:45.644Z,12.27
2023-01-26T18:11:14.966Z,15.85
2023-01-26T18:13:43.975Z,9.73
2023-01-26T18:16:16.656Z,12.45
2023-01-26T18:18:44.882Z,10.48
2023-01-26T18:21:16.902Z,20.23
2023-01-26T18:23:46.215Z,10.05
2023-01-26T18:26:15.334Z,22.60
2023-01-26T18:28:44.989Z,10.23
2023-01-26T18:31:17.422Z,13.88
2023-01-26T18:33:46.599Z,10.88
2023-01-26T18:36:17.591Z,11.07
2023-01-26T18:38:51.939Z,10.52
2023-01-26T18:41:21.708Z,11.73
2023-01-26T18:43:54.105Z,13.93
2023-01-26T18:46:23.117Z,12.40
2023-01-26T18:48:53.861Z,17.00
2023-01-26T18:51:22.745Z,24.80
2023-01-26T18:53:50.499Z,8.68
2023-01-26T18:56:18.453Z,14.27
2023-01-26T18:58:46.119Z,11.80
2023-01-26T19:01:15.979Z,9.38
2023-01-26T19:03:47.554Z,10.25
2023-01-26T19:06:18.439Z,10.80
2023-01-26T19:08:49.201Z,8.05
2023-01-26T19:11:17.655Z,8.90
2023-01-26T19:13:48.979Z,12.13
2023-01-26T19:16:17.409Z,11.38
2023-01-26T19:18:45.257Z,12.15
2023-01-26T19:21:13.444Z,12.27
2023-01-26T19:23:42.805Z,12.45
2023-01-26T19:26:17.449Z,10.40
2023-01-26T19:28:46.703Z,14.60
2023-01-26T19:31:19.201Z,8.70
2023-01-26T19:36:23.490Z,15.45
2023-01-26T19:38:51.669Z,35.83
2023-01-26T19:41:20.290Z,25.10
2023-01-26T19:43:48.369Z,19.95
2023-01-26T19:46:16.995Z,15.23
2023-01-26T19:48:44.881Z,12.70
2023-01-26T19:51:12.463Z,13.00
2023-01-26T19:53:42.538Z,10.82
2023-01-26T19:56:19.281Z,15.23
2023-01-26T19:58:51.561Z,12.55
2023-01-26T20:01:19.969Z,12.95
2023-01-26T20:03:58.792Z,11.43
2023-01-26T20:06:29.213Z,14.70
2023-01-26T20:08:57.043Z,10.23
2023-01-26T20:11:27.232Z,13.07
2023-01-26T20:13:59.705Z,11.30
2023-01-26T20:16:30.897Z,11.93
2023-01-26T20:19:02.104Z,11.52
2023-01-26T20:21:31.217Z,11.77
2023-01-26T20:24:05.188Z,13.45
2023-01-26T20:26:34.761Z,15.73
2023-01-26T20:29:03.471Z,10.07
2023-01-26T20:31:32.593Z,15.18
2023-01-26T20:34:01.791Z,10.65
2023-01-26T20:36:30.190Z,9.50
2023-01-26T20:38:58.233Z,9.00
2023-01-26T20:41:28.973Z,9.32
2023-01-26T20:44:01.245Z,11.55
2023-01-26T20:46:32.418Z,10.57
2023-01-26T20:49:00.618Z,10.05
2023-01-26T20:51:31.373Z,12.98
2023-01-26T20:53:59.036Z,11.57
2023-01-26T20:56:27.223Z,7.45
2023-01-26T20:58:55.865Z,6.95
2023-01-26T21:01:24.908Z,13.20
2023-01-26T21:03:53.459Z,10.95
2023-01-26T21:06:22.709Z,10.73
2023-01-26T21:08:53.521Z,13.02
2023-01-26T21:11:23.046Z,11.73
2023-01-26T21:13:52.047Z,8.85
2023-01-26T21:16:19.888Z,12.52
2023-01-26T21:18:47.688Z,10.45
2023-01-26T21:21:19.507Z,11.07
2023-01-26T21:23:47.195Z,12.02
2023-01-26T21:26:22.145Z,12.43
2023-01-26T21:28:55.039Z,12.43
2023-01-26T21:31:27.648Z,10.93
2023-01-26T21:33:58.393Z,8.95
2023-01-26T21:36:28.841Z,11.32
2023-01-26T21:38:57.961Z,9.75
2023-01-26T21:41:51.459Z,10.32
2023-01-26T21:44:24.619Z,16.45
2023-01-26T21:46:57.911Z,9.88
2023-01-26T21:49:26.183Z,11.80
2023-01-26T21:52:12.357Z,10.05
2023-01-26T21:54:40.449Z,13.43
2023-01-26T21:57:29.046Z,12.88
2023-01-26T21:59:57.031Z,8.65
2023-01-26T22:02:24.740Z,14.20
2023-01-26T22:04:52.774Z,13.75
2023-01-26T22:07:20.327Z,14.63
2023-01-26T22:09:48.224Z,10.45
2023-01-26T22:12:16.617Z,17.23
2023-01-26T22:14:44.208Z,13.05
2023-01-26T22:17:11.800Z,9.13
2023-01-26T22:19:39.446Z,12.90
2023-01-26T22:22:06.952Z,8.73
2023-01-26T22:24:35.017Z,8.45
2023-01-26T22:27:02.975Z,8.77
2023-01-26T22:29:30.859Z,11.05
2023-01-26T22:31:58.885Z,7.72
2023-01-26T22:34:26.888Z,9.07
2023-01-26T22:36:54.896Z,11.10
2023-01-26T22:39:22.765Z,10.00
2023-01-26T22:41:50.661Z,10.90
2023-01-26T22:44:18.222Z,12.63
2023-01-26T22:46:45.861Z,9.15
2023-01-26T22:49:13.497Z,13.80
2023-01-26T22:51:41.290Z,10.40
2023-01-26T22:54:09.262Z,11.73
2023-01-26T22:56:37.154Z,11.93
2023-01-26T22:59:04.750Z,16.05
2023-01-26T23:01:33.370Z,12.88
2023-01-26T23:04:01.616Z,11.77
2023-01-26T23:06:30.218Z,9.15
2023-01-26T23:09:02.201Z,13.65
2023-01-26T23:11:30.583Z,13.40
2023-01-26T23:14:00.168Z,12.02
2023-01-26T23:16:28.331Z,11.60
2023-01-26T23:18:57.494Z,12.82
2023-01-26T23:21:26.082Z,10.55
2023-01-26T23:23:54.091Z,12.57
2023-01-26T23:26:22.658Z,9.05
2023-01-26T23:28:51.471Z,9.80
2023-01-26T23:31:19.437Z,9.00
2023-01-26T23:33:47.471Z,11.25
2023-01-26T23:36:15.617Z,10.82
2023-01-26T23:38:45.683Z,12.35
2023-01-26T23:41:14.093Z,10.30
2023-01-26T23:43:42.426Z,12.02
2023-01-26T23:46:10.845Z,11.23
2023-01-26T23:48:39.145Z,8.98
2023-01-26T23:51:10.353Z,9.25
2023-01-26T23:53:38.630Z,11.05
2023-01-26T23:56:16.920Z,8.93
2023-01-26T23:58:45.835Z,10.60
